Time;durP1;ratioP1;P1;durP2;ratioP2;P2;SDS_P1;SDS_P2;PMS_P1;PMS_P2;Temp;Humidity;BMP_temperature;BMP_pressure;BME280_temperature;BME280_humidity;BME280_pressure;Samples;Min_cycle;Max_cycle;Signal;HPM_P1;HPM_P2
2023/11/02 00:01:32;;;;;;;3.50;1.25;;;;;;;;;;5022708;28;20280;-71
2023/11/02 00:03:59;;;;;;;3.70;1.30;;;;;;;;;;5029600;28;20645;-70
2023/11/02 00:06:35;;;;;;;3.40;1.20;;;;;;;;;;5024584;28;20194;-69
2023/11/02 00:09:03;;;;;;;5.38;1.25;;;;;;;;;;5030387;28;20221;-69
2023/11/02 00:11:47;;;;;;;3.55;1.10;;;;;;;;;;5026627;28;20182;-69
2023/11/02 00:14:12;;;;;;;5.20;1.23;;;;;;;;;;5029136;28;20491;-71
2023/11/02 00:16:38;;;;;;;5.82;1.35;;;;;;;;;;5039376;28;20298;-70
2023/11/02 00:19:05;;;;;;;6.57;1.33;;;;;;;;;;5023415;28;20186;-70
2023/11/02 00:21:32;;;;;;;4.55;1.50;;;;;;;;;;5024607;28;20684;-70
2023/11/02 00:23:57;;;;;;;6.13;1.23;;;;;;;;;;5018333;28;20530;-70
2023/11/02 00:26:24;;;;;;;4.68;1.00;;;;;;;;;;5027033;28;20260;-70
2023/11/02 00:28:49;;;;;;;5.85;1.60;;;;;;;;;;5028258;28;20213;-70
2023/11/02 00:31:15;;;;;;;4.50;1.75;;;;;;;;;;5015702;28;20198;-70
2023/11/02 00:33:40;;;;;;;2.92;1.10;;;;;;;;;;5010885;28;20670;-70
2023/11/02 00:36:07;;;;;;;7.28;1.35;;;;;;;;;;5023158;28;20269;-70
2023/11/02 00:38:33;;;;;;;8.23;1.98;;;;;;;;;;5029312;28;20190;-70
2023/11/02 00:41:00;;;;;;;5.35;1.80;;;;;;;;;;5022332;28;20203;-70
2023/11/02 00:43:28;;;;;;;8.73;2.00;;;;;;;;;;5017315;28;20269;-69
2023/11/02 00:45:54;;;;;;;5.95;1.60;;;;;;;;;;5026423;28;20185;-70
2023/11/02 00:48:21;;;;;;;6.40;1.52;;;;;;;;;;5009610;28;20229;-70
2023/11/02 00:51:07;;;;;;;8.23;2.08;;;;;;;;;;5020223;28;20329;-69
2023/11/02 00:53:33;;;;;;;6.97;2.10;;;;;;;;;;5027520;28;20530;-70
2023/11/02 00:56:04;;;;;;;7.88;1.58;;;;;;;;;;5025770;28;20224;-69
2023/11/02 00:58:30;;;;;;;5.05;1.40;;;;;;;;;;5026135;28;20550;-70
2023/11/02 01:00:55;;;;;;;6.57;1.73;;;;;;;;;;5028319;28;20198;-69
2023/11/02 01:03:21;;;;;;;6.35;1.30;;;;;;;;;;5024997;28;20194;-69
2023/11/02 01:05:47;;;;;;;7.20;1.60;;;;;;;;;;5018836;28;20198;-70
2023/11/02 01:08:14;;;;;;;10.73;1.75;;;;;;;;;;5024917;28;20283;-69
2023/11/02 01:10:43;;;;;;;4.35;1.10;;;;;;;;;;5020230;28;20190;-70
2023/11/02 01:13:18;;;;;;;4.85;1.48;;;;;;;;;;5024512;28;20568;-69
2023/11/02 01:15:43;;;;;;;4.38;1.45;;;;;;;;;;5028334;28;20658;-69
2023/11/02 01:18:14;;;;;;;3.85;1.20;;;;;;;;;;5024505;28;20189;-70
2023/11/02 01:20:39;;;;;;;5.82;2.13;;;;;;;;;;5034906;28;20209;-70
2023/11/02 01:23:09;;;;;;;4.78;0.95;;;;;;;;;;5025434;28;20676;-69
2023/11/02 01:25:46;;;;;;;4.38;0.88;;;;;;;;;;5017927;28;20199;-69
2023/11/02 01:28:16;;;;;;;5.18;1.60;;;;;;;;;;5024783;28;20275;-69
2023/11/02 01:30:41;;;;;;;6.18;1.30;;;;;;;;;;5028193;28;20190;-70
2023/11/02 01:33:38;;;;;;;4.22;1.08;;;;;;;;;;5017003;28;20677;-69
2023/11/02 01:36:05;;;;;;;7.15;1.48;;;;;;;;;;5020890;28;20241;-68
2023/11/02 01:38:32;;;;;;;3.60;0.75;;;;;;;;;;5027868;28;20284;-69
2023/11/02 01:41:09;;;;;;;3.20;0.98;;;;;;;;;;5019479;28;20261;-68
2023/11/02 01:43:57;;;;;;;6.78;0.90;;;;;;;;;;5015448;28;20193;-69
2023/11/02 01:46:56;;;;;;;3.17;0.70;;;;;;;;;;5029414;28;20201;-68
2023/11/02 01:49:48;;;;;;;3.40;1.10;;;;;;;;;;5028438;28;20343;-71
2023/11/02 01:52:39;;;;;;;1.80;0.80;;;;;;;;;;5022232;28;20185;-70
2023/11/02 01:55:43;;;;;;;3.65;0.60;;;;;;;;;;5021423;28;20653;-70
2023/11/02 01:58:32;;;;;;;7.13;1.00;;;;;;;;;;5022968;28;20201;-70
2023/11/02 02:01:30;;;;;;;6.63;0.85;;;;;;;;;;5025996;28;20186;-70
2023/11/02 02:04:15;;;;;;;4.95;0.77;;;;;;;;;;5026426;28;20206;-70
2023/11/02 02:07:05;;;;;;;4.00;0.80;;;;;;;;;;5029109;28;20197;-69
2023/11/02 02:09:56;;;;;;;1.85;0.60;;;;;;;;;;5019657;28;20226;-71
2023/11/02 02:12:36;;;;;;;5.22;0.77;;;;;;;;;;5025018;28;20284;-69
2023/11/02 02:15:07;;;;;;;4.88;0.80;;;;;;;;;;5022291;28;20676;-70
2023/11/02 02:17:59;;;;;;;5.30;1.00;;;;;;;;;;5023803;28;20396;-70
2023/11/02 02:20:31;;;;;;;2.47;0.57;;;;;;;;;;5025051;28;20189;-72
2023/11/02 02:23:10;;;;;;;6.47;0.88;;;;;;;;;;5028204;28;20236;-70
2023/11/02 02:25:50;;;;;;;3.25;0.50;;;;;;;;;;5028378;28;20189;-69
2023/11/02 02:28:27;;;;;;;7.13;0.65;;;;;;;;;;5028280;28;20275;-69
2023/11/02 02:31:05;;;;;;;1.40;0.55;;;;;;;;;;5020243;28;20198;-69
2023/11/02 02:33:55;;;;;;;2.03;0.70;;;;;;;;;;5032090;28;20193;-70
2023/11/02 02:36:54;;;;;;;3.50;1.08;;;;;;;;;;5031140;28;20292;-69
2023/11/02 02:39:22;;;;;;;2.75;0.70;;;;;;;;;;5040719;28;20190;-70
2023/11/02 02:41:54;;;;;;;4.95;0.80;;;;;;;;;;5031530;28;20269;-70
2023/11/02 02:44:21;;;;;;;3.75;0.65;;;;;;;;;;5027460;28;20724;-70
2023/11/02 02:46:47;;;;;;;5.47;0.75;;;;;;;;;;5030364;28;20500;-70
2023/11/02 02:49:13;;;;;;;6.03;0.90;;;;;;;;;;5031733;28;20218;-71
2023/11/02 02:51:44;;;;;;;3.03;0.80;;;;;;;;;;5030413;28;20208;-70
2023/11/02 02:54:12;;;;;;;2.60;0.65;;;;;;;;;;5030562;28;20189;-70
2023/11/02 02:56:40;;;;;;;2.13;0.65;;;;;;;;;;5030026;28;20195;-69
2023/11/02 02:59:15;;;;;;;4.32;0.93;;;;;;;;;;5024814;28;20213;-69
2023/11/02 03:01:43;;;;;;;6.57;0.63;;;;;;;;;;5018794;28;20727;-70
2023/11/02 03:04:10;;;;;;;3.92;0.93;;;;;;;;;;5015591;28;20270;-70
2023/11/02 03:06:46;;;;;;;4.30;0.60;;;;;;;;;;5024605;28;20505;-70
2023/11/02 03:09:19;;;;;;;3.55;0.60;;;;;;;;;;5037169;28;20210;-69
2023/11/02 03:11:46;;;;;;;3.72;0.55;;;;;;;;;;5021297;28;20281;-69
2023/11/02 03:14:13;;;;;;;4.93;0.85;;;;;;;;;;5025188;28;20637;-69
2023/11/02 03:16:42;;;;;;;1.63;0.60;;;;;;;;;;5025204;28;20876;-69
2023/11/02 03:19:08;;;;;;;4.53;0.90;;;;;;;;;;5026782;28;20619;-70
2023/11/02 03:21:33;;;;;;;2.80;0.80;;;;;;;;;;5028311;28;20182;-69
2023/11/02 03:24:30;;;;;;;1.95;0.50;;;;;;;;;;5031540;28;20255;-70
2023/11/02 03:27:06;;;;;;;3.00;0.90;;;;;;;;;;5027820;28;20201;-70
2023/11/02 03:29:53;;;;;;;4.07;0.75;;;;;;;;;;5021965;28;20248;-69
2023/11/02 03:32:25;;;;;;;3.20;0.50;;;;;;;;;;5014012;28;20198;-69
2023/11/02 03:35:02;;;;;;;3.03;0.60;;;;;;;;;;5016831;28;20195;-69
2023/11/02 03:38:01;;;;;;;5.00;0.55;;;;;;;;;;5017742;28;20193;-69
2023/11/02 03:40:44;;;;;;;2.55;0.68;;;;;;;;;;5028428;28;20289;-69
2023/11/02 03:43:21;;;;;;;2.55;0.52;;;;;;;;;;5020351;28;20230;-69
2023/11/02 03:46:15;;;;;;;1.90;0.40;;;;;;;;;;5017384;28;20260;-69
2023/11/02 03:48:44;;;;;;;1.65;0.40;;;;;;;;;;5029845;28;20225;-69
2023/11/02 03:51:29;;;;;;;2.30;0.80;;;;;;;;;;5020023;28;20193;-69
2023/11/02 03:54:14;;;;;;;4.07;0.80;;;;;;;;;;5026117;28;20222;-69
2023/11/02 03:56:45;;;;;;;2.45;0.75;;;;;;;;;;5029384;28;20209;-69
2023/11/02 03:59:15;;;;;;;3.20;0.60;;;;;;;;;;5027199;28;20186;-69
2023/11/02 04:02:01;;;;;;;4.45;0.60;;;;;;;;;;5022409;28;20198;-70
2023/11/02 04:04:39;;;;;;;4.85;0.60;;;;;;;;;;5029879;28;20186;-69
2023/11/02 04:07:40;;;;;;;1.08;0.57;;;;;;;;;;5029102;28;20292;-69
2023/11/02 04:10:08;;;;;;;6.35;0.85;;;;;;;;;;5024800;28;20565;-69
2023/11/02 04:13:18;;;;;;;2.47;0.88;;;;;;;;;;5024789;28;20190;-70
2023/11/02 04:15:44;;;;;;;1.40;0.52;;;;;;;;;;5023656;28;20229;-70
2023/11/02 04:18:10;;;;;;;6.15;0.93;;;;;;;;;;5025535;28;20186;-69
2023/11/02 04:20:39;;;;;;;2.85;0.50;;;;;;;;;;5030157;28;20182;-70
2023/11/02 04:23:04;;;;;;;3.25;0.80;;;;;;;;;;5012082;28;20227;-70
2023/11/02 04:25:30;;;;;;;11.48;0.90;;;;;;;;;;5025638;28;20665;-70
2023/11/02 04:27:55;;;;;;;4.90;0.77;;;;;;;;;;5020676;28;20272;-70
2023/11/02 04:30:21;;;;;;;4.50;0.95;;;;;;;;;;5030381;28;20205;-70
2023/11/02 04:32:46;;;;;;;3.08;0.70;;;;;;;;;;5037740;28;20212;-70
2023/11/02 04:35:12;;;;;;;3.97;0.73;;;;;;;;;;5023258;28;20202;-70
2023/11/02 04:37:38;;;;;;;4.55;0.88;;;;;;;;;;5022025;28;20548;-70
2023/11/02 04:40:04;;;;;;;5.13;0.70;;;;;;;;;;5029150;28;20272;-71
2023/11/02 04:42:29;;;;;;;2.67;0.50;;;;;;;;;;5024570;28;20221;-70
2023/11/02 04:44:55;;;;;;;6.18;0.90;;;;;;;;;;5028729;28;20192;-70
2023/11/02 04:47:20;;;;;;;3.90;1.00;;;;;;;;;;5022661;28;20201;-70
2023/11/02 04:49:46;;;;;;;4.78;0.70;;;;;;;;;;5024551;28;20202;-70
2023/11/02 04:52:11;;;;;;;9.93;1.20;;;;;;;;;;5024682;28;20190;-69
2023/11/02 04:54:37;;;;;;;3.35;0.70;;;;;;;;;;5028744;28;20191;-70
2023/11/02 04:57:03;;;;;;;4.68;0.88;;;;;;;;;;5024282;28;20285;-69
2023/11/02 04:59:35;;;;;;;3.42;0.80;;;;;;;;;;5027813;28;20641;-69
2023/11/02 05:02:00;;;;;;;2.65;0.70;;;;;;;;;;5022500;28;20190;-70
2023/11/02 05:04:26;;;;;;;2.85;1.13;;;;;;;;;;5025327;28;20236;-71
2023/11/02 05:06:51;;;;;;;5.18;1.23;;;;;;;;;;5028196;28;20625;-70
2023/11/02 05:09:16;;;;;;;5.50;0.88;;;;;;;;;;5024340;28;20256;-70
2023/11/02 05:11:42;;;;;;;2.10;0.80;;;;;;;;;;5025607;28;20198;-70
2023/11/02 05:14:07;;;;;;;5.35;0.93;;;;;;;;;;5028040;28;20308;-70
2023/11/02 05:16:33;;;;;;;5.47;1.15;;;;;;;;;;5026321;28;20697;-70
2023/11/02 05:18:58;;;;;;;2.42;0.82;;;;;;;;;;5027334;28;20182;-70
2023/11/02 05:21:23;;;;;;;5.47;1.20;;;;;;;;;;5024093;28;20263;-69
2023/11/02 05:23:49;;;;;;;3.13;1.08;;;;;;;;;;5016681;28;20194;-69
2023/11/02 05:26:15;;;;;;;4.63;0.95;;;;;;;;;;5047578;28;20208;-69
2023/11/02 05:28:41;;;;;;;5.70;0.90;;;;;;;;;;5017720;28;20785;-69
2023/11/02 05:31:06;;;;;;;5.15;1.10;;;;;;;;;;5020308;28;20244;-69
2023/11/02 05:33:31;;;;;;;5.93;1.20;;;;;;;;;;5029769;28;20609;-69
2023/11/02 05:35:57;;;;;;;5.70;1.10;;;;;;;;;;5021649;28;20209;-69
2023/11/02 05:38:22;;;;;;;3.92;1.02;;;;;;;;;;5018965;28;20255;-71
2023/11/02 05:40:48;;;;;;;6.65;0.90;;;;;;;;;;5023951;28;20194;-68
2023/11/02 05:43:13;;;;;;;6.35;1.17;;;;;;;;;;5022832;28;20208;-69
2023/11/02 05:45:39;;;;;;;4.35;0.80;;;;;;;;;;5042000;28;20509;-69
2023/11/02 05:48:05;;;;;;;2.85;0.73;;;;;;;;;;5027230;28;20222;-70
2023/11/02 05:50:30;;;;;;;5.20;0.98;;;;;;;;;;5030862;28;20205;-70
2023/11/02 05:52:56;;;;;;;4.20;0.95;;;;;;;;;;5024023;28;20273;-70
2023/11/02 05:55:21;;;;;;;4.35;0.88;;;;;;;;;;5041256;28;20186;-70
2023/11/02 05:57:47;;;;;;;3.80;0.80;;;;;;;;;;5021048;28;20186;-70
2023/11/02 06:00:13;;;;;;;2.30;0.70;;;;;;;;;;5019688;28;20194;-69
2023/11/02 06:02:38;;;;;;;3.72;0.85;;;;;;;;;;5025836;28;20676;-70
2023/11/02 06:05:05;;;;;;;3.53;0.73;;;;;;;;;;5027633;28;20194;-70
2023/11/02 06:07:31;;;;;;;3.30;0.70;;;;;;;;;;5027736;28;20197;-70
2023/11/02 06:09:57;;;;;;;3.80;0.70;;;;;;;;;;5030015;28;20598;-71
2023/11/02 06:12:23;;;;;;;6.50;0.93;;;;;;;;;;5027503;28;20190;-74
2023/11/02 06:14:49;;;;;;;3.90;0.90;;;;;;;;;;5017819;28;20206;-69
2023/11/02 06:17:15;;;;;;;2.88;0.60;;;;;;;;;;5022804;28;20222;-70
2023/11/02 06:19:40;;;;;;;6.97;0.80;;;;;;;;;;5014392;28;20557;-69
2023/11/02 06:22:06;;;;;;;2.13;0.50;;;;;;;;;;5024671;28;20205;-69
2023/11/02 06:24:31;;;;;;;2.20;0.90;;;;;;;;;;5030448;28;20360;-69
2023/11/02 06:26:56;;;;;;;2.80;0.70;;;;;;;;;;5029742;28;20252;-69
2023/11/02 06:29:22;;;;;;;7.82;0.98;;;;;;;;;;5031201;28;20309;-69
2023/11/02 06:31:47;;;;;;;6.32;0.90;;;;;;;;;;5017359;28;20626;-69
2023/11/02 06:34:15;;;;;;;4.97;0.63;;;;;;;;;;5042380;28;20186;-68
2023/11/02 06:36:41;;;;;;;2.20;0.50;;;;;;;;;;5024009;28;20190;-70
2023/11/02 06:39:10;;;;;;;3.05;0.95;;;;;;;;;;4824298;28;10000626;-70
2023/11/02 06:41:39;;;;;;;2.67;0.63;;;;;;;;;;5027030;28;20729;-68
2023/11/02 06:44:05;;;;;;;3.72;0.65;;;;;;;;;;5011073;28;20326;-68
2023/11/02 06:46:30;;;;;;;2.42;0.50;;;;;;;;;;5021288;28;20281;-68
2023/11/02 06:48:55;;;;;;;3.00;0.50;;;;;;;;;;5024299;28;20221;-70
2023/11/02 06:51:21;;;;;;;10.07;0.80;;;;;;;;;;5024438;28;20194;-70
2023/11/02 06:53:46;;;;;;;2.95;0.60;;;;;;;;;;5029388;28;20274;-69
2023/11/02 06:56:12;;;;;;;2.88;0.80;;;;;;;;;;5019344;28;20726;-70
2023/11/02 06:58:37;;;;;;;3.00;0.60;;;;;;;;;;5022332;28;20256;-69
2023/11/02 07:01:04;;;;;;;2.42;0.63;;;;;;;;;;5027939;28;20178;-69
2023/11/02 07:03:30;;;;;;;4.35;0.88;;;;;;;;;;5029693;28;20285;-69
2023/11/02 07:05:55;;;;;;;3.50;0.90;;;;;;;;;;4664608;28;9999741;-68
2023/11/02 07:08:20;;;;;;;2.92;0.80;;;;;;;;;;5022738;28;20298;-68
2023/11/02 07:10:46;;;;;;;3.08;0.80;;;;;;;;;;5042633;28;20688;-71
2023/11/02 07:13:15;;;;;;;2.13;0.70;;;;;;;;;;5027939;28;20210;-72
2023/11/02 07:15:41;;;;;;;2.88;0.90;;;;;;;;;;5028384;28;20253;-74
2023/11/02 07:18:06;;;;;;;4.45;0.70;;;;;;;;;;5030389;28;20367;-73
2023/11/02 07:20:32;;;;;;;2.33;0.88;;;;;;;;;;5030135;28;20369;-73
2023/11/02 07:22:58;;;;;;;4.25;0.60;;;;;;;;;;5025797;28;20243;-73
2023/11/02 07:25:23;;;;;;;2.67;0.60;;;;;;;;;;5026237;28;20182;-74
2023/11/02 07:27:49;;;;;;;8.60;0.90;;;;;;;;;;5025496;28;20573;-74
2023/11/02 07:30:14;;;;;;;4.00;0.90;;;;;;;;;;5026555;28;20185;-75
2023/11/02 07:32:43;;;;;;;5.75;1.27;;;;;;;;;;5029680;28;20273;-76
2023/11/02 07:35:09;;;;;;;6.75;1.10;;;;;;;;;;5030725;28;20641;-74
2023/11/02 07:37:34;;;;;;;9.07;1.15;;;;;;;;;;5022178;28;20202;-73
2023/11/02 07:40:00;;;;;;;5.80;1.00;;;;;;;;;;5045910;28;20204;-74
2023/11/02 07:42:25;;;;;;;5.57;1.00;;;;;;;;;;5026982;28;20634;-73
2023/11/02 07:44:50;;;;;;;7.65;1.15;;;;;;;;;;5041580;28;20195;-74
2023/11/02 07:47:16;;;;;;;3.22;0.60;;;;;;;;;;5020809;28;20217;-73
2023/11/02 07:49:41;;;;;;;7.07;1.15;;;;;;;;;;5022905;28;20303;-72
2023/11/02 07:52:07;;;;;;;1.85;0.85;;;;;;;;;;5028970;28;20624;-72
2023/11/02 07:54:36;;;;;;;5.45;1.00;;;;;;;;;;5031965;28;20248;-72
2023/11/02 07:57:07;;;;;;;4.03;0.98;;;;;;;;;;5030630;28;20197;-72
2023/11/02 07:59:33;;;;;;;1.83;0.68;;;;;;;;;;5042284;28;20190;-72
2023/11/02 08:01:59;;;;;;;4.82;0.90;;;;;;;;;;5030775;28;20684;-73
2023/11/02 08:04:24;;;;;;;1.98;0.50;;;;;;;;;;5039382;28;20281;-71
2023/11/02 08:06:50;;;;;;;3.13;0.65;;;;;;;;;;5027697;28;20499;-71
2023/11/02 08:09:15;;;;;;;3.35;0.88;;;;;;;;;;5025077;28;20297;-71
2023/11/02 08:11:40;;;;;;;4.07;0.90;;;;;;;;;;5029809;28;20229;-72
2023/11/02 08:14:07;;;;;;;3.72;0.73;;;;;;;;;;5015644;28;20187;-72
2023/11/02 08:16:32;;;;;;;4.63;0.98;;;;;;;;;;5041280;28;20592;-72
2023/11/02 08:18:58;;;;;;;9.02;1.25;;;;;;;;;;5010472;28;20202;-73
2023/11/02 08:21:23;;;;;;;2.95;0.80;;;;;;;;;;5029489;28;20194;-71
2023/11/02 08:23:48;;;;;;;2.60;0.90;;;;;;;;;;5029235;28;20502;-71
2023/11/02 08:26:14;;;;;;;1.95;0.85;;;;;;;;;;5024360;28;20194;-71
2023/11/02 08:28:40;;;;;;;2.35;0.70;;;;;;;;;;5018008;28;20316;-71
2023/11/02 08:31:05;;;;;;;3.30;0.85;;;;;;;;;;5019051;28;20285;-72
2023/11/02 08:33:31;;;;;;;2.13;0.63;;;;;;;;;;5019056;28;20198;-71
2023/11/02 08:35:56;;;;;;;3.08;0.77;;;;;;;;;;5025476;28;20256;-70
2023/11/02 08:38:21;;;;;;;3.83;0.73;;;;;;;;;;5028809;28;20193;-71
2023/11/02 08:40:47;;;;;;;2.65;0.90;;;;;;;;;;5030133;28;20194;-70
2023/11/02 08:43:12;;;;;;;1.77;0.60;;;;;;;;;;5025648;28;20182;-70
2023/11/02 08:45:38;;;;;;;1.83;0.55;;;;;;;;;;5022195;28;20186;-70
2023/11/02 08:48:03;;;;;;;1.00;0.40;;;;;;;;;;5025719;28;20226;-70
2023/11/02 08:50:29;;;;;;;3.78;0.55;;;;;;;;;;5026296;28;20245;-70
2023/11/02 08:52:54;;;;;;;5.13;0.70;;;;;;;;;;5033068;28;20264;-71
2023/11/02 08:55:20;;;;;;;5.80;1.23;;;;;;;;;;5029604;28;20237;-70
2023/11/02 08:57:45;;;;;;;2.53;0.50;;;;;;;;;;5025330;28;20554;-69
2023/11/02 09:00:11;;;;;;;2.92;0.47;;;;;;;;;;5013201;28;20578;-69
2023/11/02 09:02:36;;;;;;;1.60;0.40;;;;;;;;;;5028822;28;20183;-70
2023/11/02 09:05:03;;;;;;;4.13;1.33;;;;;;;;;;5023425;28;20222;-74
2023/11/02 09:07:30;;;;;;;1.55;0.52;;;;;;;;;;5026305;28;20236;-70
2023/11/02 09:09:56;;;;;;;0.85;0.40;;;;;;;;;;5013916;28;20187;-71
2023/11/02 09:12:22;;;;;;;1.55;0.40;;;;;;;;;;5014976;28;20178;-70
2023/11/02 09:14:47;;;;;;;3.97;0.50;;;;;;;;;;5016405;28;20289;-73
2023/11/02 09:17:13;;;;;;;2.67;0.57;;;;;;;;;;5009144;28;20226;-72
2023/11/02 09:19:38;;;;;;;3.03;0.40;;;;;;;;;;5029642;28;20182;-71
2023/11/02 09:22:04;;;;;;;3.13;0.65;;;;;;;;;;5027372;28;20323;-71
2023/11/02 09:24:29;;;;;;;2.70;0.40;;;;;;;;;;5026789;28;20182;-71
2023/11/02 09:26:55;;;;;;;1.70;0.40;;;;;;;;;;5039218;28;20300;-70
2023/11/02 09:29:21;;;;;;;1.20;0.32;;;;;;;;;;5020944;28;20205;-70
2023/11/02 09:31:46;;;;;;;2.42;0.52;;;;;;;;;;5033877;28;20404;-71
2023/11/02 09:34:12;;;;;;;2.97;0.70;;;;;;;;;;5026444;28;20510;-70
2023/11/02 09:36:38;;;;;;;4.35;0.60;;;;;;;;;;5028315;28;20190;-71
2023/11/02 09:39:07;;;;;;;1.38;0.38;;;;;;;;;;5029810;28;20323;-72
2023/11/02 09:41:35;;;;;;;4.10;0.47;;;;;;;;;;5028106;28;20182;-70
2023/11/02 09:44:01;;;;;;;8.07;0.57;;;;;;;;;;5026196;28;20287;-69
2023/11/02 09:46:26;;;;;;;2.15;0.50;;;;;;;;;;5017862;28;20269;-71
2023/11/02 09:48:52;;;;;;;0.70;0.40;;;;;;;;;;5022482;28;20228;-73
2023/11/02 09:51:18;;;;;;;1.00;0.40;;;;;;;;;;5020384;28;20195;-69
2023/11/02 09:53:44;;;;;;;2.92;0.60;;;;;;;;;;5015927;28;20196;-75
2023/11/02 09:56:11;;;;;;;2.05;0.50;;;;;;;;;;5019238;28;20576;-70
2023/11/02 09:58:37;;;;;;;1.75;0.40;;;;;;;;;;5024577;28;20673;-75
2023/11/02 10:01:02;;;;;;;2.40;0.45;;;;;;;;;;5026911;28;20206;-70
2023/11/02 10:03:28;;;;;;;4.13;0.52;;;;;;;;;;5025765;28;20197;-70
2023/11/02 10:05:53;;;;;;;2.53;0.40;;;;;;;;;;5026726;28;20198;-70
2023/11/02 10:08:19;;;;;;;2.95;0.50;;;;;;;;;;5027888;28;20206;-70
2023/11/02 10:10:45;;;;;;;2.25;0.50;;;;;;;;;;5027105;28;20230;-70
2023/11/02 10:13:10;;;;;;;1.63;0.70;;;;;;;;;;5028438;28;20197;-72
2023/11/02 10:15:36;;;;;;;4.00;0.80;;;;;;;;;;5027708;28;20234;-70
2023/11/02 10:18:01;;;;;;;2.85;0.57;;;;;;;;;;5027575;28;20277;-69
2023/11/02 10:20:27;;;;;;;2.38;0.52;;;;;;;;;;5028216;28;20194;-70
2023/11/02 10:23:03;;;;;;;2.72;0.80;;;;;;;;;;5037793;28;20240;-70
2023/11/02 10:25:29;;;;;;;1.70;0.50;;;;;;;;;;5019988;28;20196;-75
2023/11/02 10:27:56;;;;;;;4.85;0.60;;;;;;;;;;5040751;28;20206;-75
2023/11/02 10:30:22;;;;;;;5.40;0.65;;;;;;;;;;5015912;28;20197;-72
2023/11/02 10:32:47;;;;;;;2.97;0.50;;;;;;;;;;5025338;28;20209;-70
2023/11/02 10:35:12;;;;;;;3.05;0.57;;;;;;;;;;5024122;28;20194;-75
2023/11/02 10:37:38;;;;;;;3.22;0.63;;;;;;;;;;5023296;28;20179;-69
2023/11/02 10:40:04;;;;;;;4.45;0.70;;;;;;;;;;5029077;28;20193;-69
2023/11/02 10:42:30;;;;;;;2.35;0.57;;;;;;;;;;5025493;28;20193;-71
2023/11/02 10:44:56;;;;;;;2.33;0.60;;;;;;;;;;5028168;28;20178;-70
2023/11/02 10:47:34;;;;;;;4.35;0.70;;;;;;;;;;5017706;28;20191;-72
2023/11/02 10:50:01;;;;;;;2.83;0.85;;;;;;;;;;5025539;28;20204;-70
2023/11/02 10:52:51;;;;;;;2.47;0.52;;;;;;;;;;5044042;28;20208;-71
2023/11/02 10:55:38;;;;;;;4.80;0.55;;;;;;;;;;5049034;28;20632;-69
2023/11/02 10:58:04;;;;;;;7.68;0.60;;;;;;;;;;5025723;28;20399;-69
2023/11/02 11:00:31;;;;;;;5.28;0.57;;;;;;;;;;5030376;28;20624;-71
2023/11/02 11:02:57;;;;;;;6.95;0.80;;;;;;;;;;5029973;28;20695;-72
2023/11/02 11:05:24;;;;;;;3.33;0.80;;;;;;;;;;5021622;28;20259;-69
2023/11/02 11:08:01;;;;;;;2.70;0.70;;;;;;;;;;5031422;28;20567;-73
2023/11/02 11:10:29;;;;;;;3.17;0.70;;;;;;;;;;5019376;28;20194;-73
2023/11/02 11:12:55;;;;;;;3.53;0.50;;;;;;;;;;5026641;28;20544;-73
2023/11/02 11:15:23;;;;;;;2.45;0.50;;;;;;;;;;5027820;28;20245;-69
2023/11/02 11:17:49;;;;;;;4.80;0.70;;;;;;;;;;5019560;28;20194;-69
2023/11/02 11:20:16;;;;;;;5.43;1.05;;;;;;;;;;5026199;28;20194;-70
2023/11/02 11:22:45;;;;;;;4.30;0.85;;;;;;;;;;5027893;28;20196;-70
2023/11/02 11:25:10;;;;;;;5.50;0.95;;;;;;;;;;5026202;28;20179;-69
2023/11/02 11:27:38;;;;;;;15.85;2.08;;;;;;;;;;5037169;28;20179;-69
2023/11/02 11:30:05;;;;;;;8.10;1.60;;;;;;;;;;5026449;28;20522;-70
2023/11/02 11:32:38;;;;;;;5.85;1.13;;;;;;;;;;5029726;28;20194;-70
2023/11/02 11:35:04;;;;;;;10.80;1.80;;;;;;;;;;5025103;28;20182;-75
2023/11/02 11:37:57;;;;;;;19.75;3.22;;;;;;;;;;5030771;28;20224;-71
2023/11/02 11:40:28;;;;;;;7.68;1.17;;;;;;;;;;5041588;28;20194;-69
2023/11/02 11:43:15;;;;;;;8.18;1.40;;;;;;;;;;5012759;28;20203;-73
2023/11/02 11:45:45;;;;;;;7.30;1.65;;;;;;;;;;5004101;28;20246;-76
2023/11/02 11:48:11;;;;;;;20.27;2.90;;;;;;;;;;5029375;28;20212;-73
2023/11/02 11:50:40;;;;;;;4.88;1.20;;;;;;;;;;5031071;28;20303;-70
2023/11/02 11:53:17;;;;;;;6.25;1.17;;;;;;;;;;5018981;28;20186;-74
2023/11/02 11:55:48;;;;;;;5.65;1.05;;;;;;;;;;5023945;28;20193;-70
2023/11/02 11:58:15;;;;;;;15.07;1.95;;;;;;;;;;5029561;28;20182;-74
2023/11/02 12:01:03;;;;;;;5.97;1.10;;;;;;;;;;5030427;28;20519;-75
2023/11/02 12:03:34;;;;;;;12.45;2.67;;;;;;;;;;5024195;28;20206;-76
2023/11/02 12:06:10;;;;;;;10.20;1.60;;;;;;;;;;5027322;28;20229;-70
2023/11/02 12:08:43;;;;;;;6.55;1.20;;;;;;;;;;5012802;28;20651;-73
2023/11/02 12:11:13;;;;;;;4.97;1.00;;;;;;;;;;5017147;28;20268;-70
2023/11/02 12:13:55;;;;;;;10.52;1.88;;;;;;;;;;5011421;28;20189;-75
2023/11/02 12:16:29;;;;;;;8.63;1.50;;;;;;;;;;5025788;28;20283;-71
2023/11/02 12:18:54;;;;;;;9.35;2.15;;;;;;;;;;5029988;28;20190;-74
2023/11/02 12:21:20;;;;;;;5.00;1.00;;;;;;;;;;5040243;28;20186;-74
2023/11/02 12:23:47;;;;;;;7.43;1.45;;;;;;;;;;5029406;28;20665;-72
2023/11/02 12:26:13;;;;;;;11.23;2.70;;;;;;;;;;5027864;28;20182;-70
2023/11/02 12:28:46;;;;;;;4.55;1.00;;;;;;;;;;5021512;28;20203;-73
2023/11/02 12:31:16;;;;;;;9.68;1.98;;;;;;;;;;5029739;28;20189;-71
2023/11/02 12:33:49;;;;;;;8.52;1.38;;;;;;;;;;5025332;28;20643;-73
2023/11/02 12:36:14;;;;;;;10.50;2.10;;;;;;;;;;5024684;28;20465;-70
2023/11/02 12:38:43;;;;;;;8.82;2.05;;;;;;;;;;5028108;28;20269;-70
2023/11/02 12:41:10;;;;;;;6.78;1.55;;;;;;;;;;5019738;28;20611;-71
2023/11/02 12:43:40;;;;;;;7.80;1.65;;;;;;;;;;5023602;28;20667;-77
2023/11/02 12:46:09;;;;;;;6.90;1.33;;;;;;;;;;5020829;28;20509;-75
2023/11/02 12:48:40;;;;;;;4.82;1.08;;;;;;;;;;5029978;28;20618;-78
2023/11/02 12:51:14;;;;;;;7.15;1.42;;;;;;;;;;5031954;28;20202;-73
2023/11/02 12:53:40;;;;;;;11.38;1.50;;;;;;;;;;5029416;28;20209;-73
2023/11/02 12:56:07;;;;;;;5.68;1.38;;;;;;;;;;5029305;28;20244;-72
2023/11/02 12:58:32;;;;;;;10.80;1.10;;;;;;;;;;5026431;28;20201;-73
2023/11/02 13:00:58;;;;;;;6.70;1.17;;;;;;;;;;5015490;28;20650;-72
2023/11/02 13:03:27;;;;;;;6.95;1.30;;;;;;;;;;5043043;28;20274;-71
2023/11/02 13:05:53;;;;;;;9.52;1.40;;;;;;;;;;5004706;28;20411;-71
2023/11/02 13:08:19;;;;;;;6.75;1.30;;;;;;;;;;5029714;28;20376;-76
2023/11/02 13:10:45;;;;;;;10.43;2.08;;;;;;;;;;5018880;28;20590;-71
2023/11/02 13:13:11;;;;;;;4.95;0.85;;;;;;;;;;5028348;28;20193;-72
2023/11/02 13:15:39;;;;;;;9.73;1.30;;;;;;;;;;5023763;28;20245;-70
2023/11/02 13:18:05;;;;;;;8.82;1.73;;;;;;;;;;5028198;28;20202;-74
2023/11/02 13:20:32;;;;;;;4.30;1.13;;;;;;;;;;5031748;28;20197;-69
2023/11/02 13:22:58;;;;;;;8.45;1.42;;;;;;;;;;5025894;28;20231;-72
2023/11/02 13:25:27;;;;;;;6.55;1.10;;;;;;;;;;5027074;28;20182;-72
2023/11/02 13:27:55;;;;;;;7.40;1.10;;;;;;;;;;5024512;28;20723;-73
2023/11/02 13:30:20;;;;;;;5.03;1.30;;;;;;;;;;5024793;28;20266;-74
2023/11/02 13:32:46;;;;;;;9.18;1.20;;;;;;;;;;5024347;28;20272;-73
2023/11/02 13:35:12;;;;;;;7.47;0.98;;;;;;;;;;5024156;28;20194;-71
2023/11/02 13:37:44;;;;;;;6.28;1.05;;;;;;;;;;5017949;28;20182;-72
2023/11/02 13:40:10;;;;;;;5.85;1.00;;;;;;;;;;5028590;28;20188;-73
2023/11/02 13:42:36;;;;;;;9.05;1.38;;;;;;;;;;5023607;28;20244;-75
2023/11/02 13:45:02;;;;;;;6.40;0.98;;;;;;;;;;5024448;28;20191;-74
2023/11/02 13:47:28;;;;;;;5.60;1.10;;;;;;;;;;5019199;28;20280;-75
2023/11/02 13:49:53;;;;;;;7.22;1.17;;;;;;;;;;5025883;28;20213;-74
2023/11/02 13:52:24;;;;;;;9.07;1.67;;;;;;;;;;5021456;28;20280;-71
2023/11/02 13:54:52;;;;;;;9.35;1.30;;;;;;;;;;5031651;28;20189;-74
2023/11/02 13:57:18;;;;;;;8.38;2.08;;;;;;;;;;5029142;28;20186;-74
2023/11/02 13:59:44;;;;;;;4.60;0.98;;;;;;;;;;5021890;28;20316;-70
2023/11/02 14:02:10;;;;;;;8.65;1.20;;;;;;;;;;5001982;28;20222;-72
2023/11/02 14:04:36;;;;;;;5.57;1.30;;;;;;;;;;5036049;28;20186;-73
2023/11/02 14:07:02;;;;;;;8.05;1.35;;;;;;;;;;5017757;28;20204;-74
2023/11/02 14:09:27;;;;;;;8.65;0.88;;;;;;;;;;5042096;28;20218;-73
2023/11/02 14:11:53;;;;;;;7.80;1.23;;;;;;;;;;5028735;28;20197;-73
2023/11/02 14:14:18;;;;;;;9.80;1.70;;;;;;;;;;5010643;28;20232;-75
2023/11/02 14:16:43;;;;;;;7.40;1.27;;;;;;;;;;5010747;28;20226;-71
2023/11/02 14:19:11;;;;;;;7.18;1.17;;;;;;;;;;5030712;28;20224;-75
2023/11/02 14:21:37;;;;;;;8.05;1.85;;;;;;;;;;5017394;28;20251;-72
2023/11/02 14:24:05;;;;;;;6.03;1.13;;;;;;;;;;5030086;28;20228;-73
2023/11/02 14:26:31;;;;;;;6.53;1.38;;;;;;;;;;5030896;28;20250;-72
2023/11/02 14:28:56;;;;;;;7.78;1.58;;;;;;;;;;5030399;28;20282;-73
2023/11/02 14:31:22;;;;;;;5.78;1.30;;;;;;;;;;5018824;28;20201;-76
2023/11/02 14:33:47;;;;;;;4.82;0.80;;;;;;;;;;5030459;28;20206;-74
2023/11/02 14:36:17;;;;;;;9.07;1.15;;;;;;;;;;5040318;28;20677;-73
2023/11/02 14:38:42;;;;;;;7.35;1.40;;;;;;;;;;5031464;28;20699;-75
2023/11/02 14:41:08;;;;;;;5.82;1.02;;;;;;;;;;5020512;28;20198;-74
2023/11/02 14:43:35;;;;;;;10.07;1.17;;;;;;;;;;5025048;28;20509;-73
2023/11/02 14:46:01;;;;;;;6.57;1.17;;;;;;;;;;5019426;28;20300;-72
2023/11/02 14:48:26;;;;;;;8.10;1.38;;;;;;;;;;5042687;28;20362;-71
2023/11/02 14:50:52;;;;;;;12.88;1.77;;;;;;;;;;5027213;28;20232;-76
2023/11/02 14:53:17;;;;;;;8.57;1.40;;;;;;;;;;5028421;28;20193;-74
2023/11/02 14:55:42;;;;;;;9.40;1.33;;;;;;;;;;5024276;28;20517;-70